sensor_id;sensor_type;location;lat;lon;timestamp;pressure;altitude;pressure_sealevel;temperature;humidity
38718;BME280;24468;52.128;9.278;2024-03-08T00:00:06;101268.09;;;3.95;100.00
38718;BME280;24468;52.128;9.278;2024-03-08T00:02:44;101261.97;;;3.69;100.00
38718;BME280;24468;52.128;9.278;2024-03-08T00:05:10;101270.91;;;3.62;100.00
38718;BME280;24468;52.128;9.278;2024-03-08T00:07:40;101267.34;;;3.64;100.00
38718;BME280;24468;52.128;9.278;2024-03-08T00:10:08;101253.09;;;3.67;100.00
38718;BME280;24468;52.128;9.278;2024-03-08T00:12:45;101261.97;;;3.73;100.00
38718;BME280;24468;52.128;9.278;2024-03-08T00:15:16;101257.53;;;3.69;100.00
38718;BME280;24468;52.128;9.278;2024-03-08T00:17:43;101257.56;;;3.68;100.00
38718;BME280;24468;52.128;9.278;2024-03-08T00:20:10;101261.28;;;3.22;100.00
38718;BME280;24468;52.128;9.278;2024-03-08T00:22:37;101255.97;;;3.16;100.00
38718;BME280;24468;52.128;9.278;2024-03-08T00:25:04;101256.91;;;2.94;100.00
38718;BME280;24468;52.128;9.278;2024-03-08T00:27:30;101267.56;;;2.51;100.00
38718;BME280;24468;52.128;9.278;2024-03-08T00:29:59;101270.22;;;2.92;100.00
38718;BME280;24468;52.128;9.278;2024-03-08T00:32:25;101271.06;;;3.19;100.00
38718;BME280;24468;52.128;9.278;2024-03-08T00:34:55;101260.38;;;3.20;100.00
38718;BME280;24468;52.128;9.278;2024-03-08T00:37:21;101259.47;;;3.23;100.00
38718;BME280;24468;52.128;9.278;2024-03-08T00:39:48;101254.16;;;3.27;100.00
38718;BME280;24468;52.128;9.278;2024-03-08T00:42:15;101253.25;;;3.25;100.00
38718;BME280;24468;52.128;9.278;2024-03-08T00:44:41;101250.63;;;3.15;100.00
38718;BME280;24468;52.128;9.278;2024-03-08T00:47:07;101251.50;;;3.17;100.00
38718;BME280;24468;52.128;9.278;2024-03-08T00:49:32;101245.25;;;3.21;100.00
38718;BME280;24468;52.128;9.278;2024-03-08T00:51:58;101248.81;;;3.20;100.00
38718;BME280;24468;52.128;9.278;2024-03-08T00:54:23;101248.84;;;3.14;100.00
38718;BME280;24468;52.128;9.278;2024-03-08T00:56:49;101241.75;;;3.06;100.00
38718;BME280;24468;52.128;9.278;2024-03-08T00:59:14;101240.91;;;2.81;100.00
38718;BME280;24468;52.128;9.278;2024-03-08T01:01:43;101246.25;;;2.81;100.00
38718;BME280;24468;52.128;9.278;2024-03-08T01:04:10;101237.34;;;2.95;100.00
38718;BME280;24468;52.128;9.278;2024-03-08T01:06:35;101232.91;;;2.94;100.00
38718;BME280;24468;52.128;9.278;2024-03-08T01:09:01;101221.31;;;3.07;100.00
38718;BME280;24468;52.128;9.278;2024-03-08T01:11:26;101228.38;;;3.17;100.00
38718;BME280;24468;52.128;9.278;2024-03-08T01:13:53;101218.56;;;3.28;100.00
38718;BME280;24468;52.128;9.278;2024-03-08T01:16:19;101210.53;;;3.36;100.00
38718;BME280;24468;52.128;9.278;2024-03-08T01:18:47;101212.34;;;3.36;100.00
38718;BME280;24468;52.128;9.278;2024-03-08T01:21:13;101217.72;;;3.17;100.00
38718;BME280;24468;52.128;9.278;2024-03-08T01:23:38;101204.50;;;2.82;100.00
38718;BME280;24468;52.128;9.278;2024-03-08T01:26:04;101200.97;;;2.63;100.00
38718;BME280;24468;52.128;9.278;2024-03-08T01:28:30;101198.31;;;2.64;100.00
38718;BME280;24468;52.128;9.278;2024-03-08T01:30:55;101203.59;;;2.86;100.00
38718;BME280;24468;52.128;9.278;2024-03-08T01:33:25;101200.91;;;2.92;100.00
38718;BME280;24468;52.128;9.278;2024-03-08T01:35:54;101190.25;;;3.00;100.00
38718;BME280;24468;52.128;9.278;2024-03-08T01:38:20;101193.81;;;3.02;100.00
38718;BME280;24468;52.128;9.278;2024-03-08T01:40:47;101175.16;;;3.02;100.00
38718;BME280;24468;52.128;9.278;2024-03-08T01:43:26;101176.91;;;3.03;100.00
38718;BME280;24468;52.128;9.278;2024-03-08T01:45:54;101176.03;;;3.02;100.00
38718;BME280;24468;52.128;9.278;2024-03-08T01:48:20;101168.94;;;2.84;100.00
38718;BME280;24468;52.128;9.278;2024-03-08T01:50:50;101173.41;;;2.81;100.00
38718;BME280;24468;52.128;9.278;2024-03-08T01:53:18;101167.19;;;2.82;100.00
38718;BME280;24468;52.128;9.278;2024-03-08T01:55:46;101165.41;;;2.79;100.00
38718;BME280;24468;52.128;9.278;2024-03-08T01:58:12;101163.63;;;2.77;100.00
38718;BME280;24468;52.128;9.278;2024-03-08T02:00:44;101156.50;;;2.93;100.00
38718;BME280;24468;52.128;9.278;2024-03-08T02:03:12;101157.38;;;2.99;100.00
38718;BME280;24468;52.128;9.278;2024-03-08T02:05:40;101152.88;;;3.10;100.00
38718;BME280;24468;52.128;9.278;2024-03-08T02:08:06;101158.22;;;3.10;100.00
38718;BME280;24468;52.128;9.278;2024-03-08T02:10:36;101147.53;;;3.14;100.00
38718;BME280;24468;52.128;9.278;2024-03-08T02:13:02;101153.75;;;3.12;100.00
38718;BME280;24468;52.128;9.278;2024-03-08T02:15:57;101146.63;;;3.18;100.00
38718;BME280;24468;52.128;9.278;2024-03-08T02:18:28;101148.44;;;3.16;100.00
38718;BME280;24468;52.128;9.278;2024-03-08T02:21:02;101146.63;;;3.15;100.00
38718;BME280;24468;52.128;9.278;2024-03-08T02:23:28;101149.34;;;3.10;100.00
38718;BME280;24468;52.128;9.278;2024-03-08T02:25:55;101146.66;;;3.13;100.00
38718;BME280;24468;52.128;9.278;2024-03-08T02:28:22;101142.22;;;3.10;100.00
38718;BME280;24468;52.128;9.278;2024-03-08T02:30:51;101139.56;;;3.06;100.00
38718;BME280;24468;52.128;9.278;2024-03-08T02:33:20;101136.88;;;3.09;100.00
38718;BME280;24468;52.128;9.278;2024-03-08T02:35:46;101137.81;;;3.02;100.00
38718;BME280;24468;52.128;9.278;2024-03-08T02:38:16;101136.00;;;3.13;100.00
38718;BME280;24468;52.128;9.278;2024-03-08T02:40:43;101138.66;;;3.11;100.00
38718;BME280;24468;52.128;9.278;2024-03-08T02:43:13;101127.09;;;3.19;100.00
38718;BME280;24468;52.128;9.278;2024-03-08T02:45:43;101124.38;;;3.23;100.00
38718;BME280;24468;52.128;9.278;2024-03-08T02:48:09;101124.38;;;3.20;100.00
38718;BME280;24468;52.128;9.278;2024-03-08T02:50:36;101119.97;;;3.19;100.00
38718;BME280;24468;52.128;9.278;2024-03-08T02:53:03;101121.72;;;3.25;100.00
38718;BME280;24468;52.128;9.278;2024-03-08T02:55:29;101113.72;;;3.25;100.00
38718;BME280;24468;52.128;9.278;2024-03-08T02:57:55;101119.09;;;3.19;100.00
38718;BME280;24468;52.128;9.278;2024-03-08T03:00:22;101109.34;;;3.13;100.00
38718;BME280;24468;52.128;9.278;2024-03-08T03:02:49;101116.47;;;3.03;100.00
38718;BME280;24468;52.128;9.278;2024-03-08T03:05:20;101111.22;;;2.86;100.00
38718;BME280;24468;52.128;9.278;2024-03-08T03:07:45;101103.22;;;2.88;100.00
38718;BME280;24468;52.128;9.278;2024-03-08T03:10:11;101108.56;;;2.79;100.00
38718;BME280;24468;52.128;9.278;2024-03-08T03:12:37;101099.63;;;2.90;100.00
38718;BME280;24468;52.128;9.278;2024-03-08T03:15:04;101096.13;;;2.88;100.00
38718;BME280;24468;52.128;9.278;2024-03-08T03:17:30;101096.06;;;2.96;100.00
38718;BME280;24468;52.128;9.278;2024-03-08T03:19:55;101098.78;;;2.79;100.00
38718;BME280;24468;52.128;9.278;2024-03-08T03:22:21;101091.72;;;2.72;100.00
38718;BME280;24468;52.128;9.278;2024-03-08T03:24:47;101088.16;;;2.81;100.00
38718;BME280;24468;52.128;9.278;2024-03-08T03:27:13;101083.69;;;2.84;100.00
38718;BME280;24468;52.128;9.278;2024-03-08T03:29:41;101089.03;;;2.78;100.00
38718;BME280;24468;52.128;9.278;2024-03-08T03:32:17;101086.41;;;2.63;100.00
38718;BME280;24468;52.128;9.278;2024-03-08T03:34:45;101088.31;;;2.19;100.00
38718;BME280;24468;52.128;9.278;2024-03-08T03:37:10;101091.88;;;1.98;100.00
38718;BME280;24468;52.128;9.278;2024-03-08T03:39:40;101090.09;;;2.13;100.00
38718;BME280;24468;52.128;9.278;2024-03-08T03:42:18;101080.31;;;2.13;100.00
38718;BME280;24468;52.128;9.278;2024-03-08T03:44:46;101085.63;;;2.26;100.00
38718;BME280;24468;52.128;9.278;2024-03-08T03:47:12;101084.75;;;2.31;100.00
38718;BME280;24468;52.128;9.278;2024-03-08T03:49:38;101088.25;;;2.42;100.00
38718;BME280;24468;52.128;9.278;2024-03-08T03:52:04;101079.38;;;2.40;100.00
38718;BME280;24468;52.128;9.278;2024-03-08T03:54:31;101081.13;;;2.46;100.00
38718;BME280;24468;52.128;9.278;2024-03-08T03:56:56;101079.34;;;2.54;100.00
38718;BME280;24468;52.128;9.278;2024-03-08T03:59:22;101069.59;;;2.45;100.00
38718;BME280;24468;52.128;9.278;2024-03-08T04:01:48;101069.59;;;2.44;100.00
38718;BME280;24468;52.128;9.278;2024-03-08T04:04:15;101071.31;;;2.60;100.00
38718;BME280;24468;52.128;9.278;2024-03-08T04:06:40;101073.13;;;2.58;100.00
38718;BME280;24468;52.128;9.278;2024-03-08T04:09:06;101060.69;;;2.54;100.00
38718;BME280;24468;52.128;9.278;2024-03-08T04:11:32;101075.81;;;2.49;100.00
38718;BME280;24468;52.128;9.278;2024-03-08T04:13:57;101074.00;;;2.57;100.00
38718;BME280;24468;52.128;9.278;2024-03-08T04:16:23;101073.13;;;2.54;100.00
38718;BME280;24468;52.128;9.278;2024-03-08T04:18:49;101067.78;;;2.60;100.00
38718;BME280;24468;52.128;9.278;2024-03-08T04:21:15;101069.56;;;2.64;100.00
38718;BME280;24468;52.128;9.278;2024-03-08T04:23:41;101060.69;;;2.66;100.00
38718;BME280;24468;52.128;9.278;2024-03-08T04:26:06;101061.56;;;2.67;100.00
38718;BME280;24468;52.128;9.278;2024-03-08T04:28:34;101058.88;;;2.75;100.00
38718;BME280;24468;52.128;9.278;2024-03-08T04:31:00;101057.06;;;2.74;100.00
38718;BME280;24468;52.128;9.278;2024-03-08T04:33:28;101053.56;;;2.72;100.00
38718;BME280;24468;52.128;9.278;2024-03-08T04:35:54;101053.56;;;2.65;100.00
38718;BME280;24468;52.128;9.278;2024-03-08T04:38:19;101055.41;;;2.45;100.00
38718;BME280;24468;52.128;9.278;2024-03-08T04:40:45;101049.19;;;2.51;100.00
38718;BME280;24468;52.128;9.278;2024-03-08T04:43:10;101042.97;;;2.41;100.00
38718;BME280;24468;52.128;9.278;2024-03-08T04:45:36;101044.75;;;2.43;100.00
38718;BME280;24468;52.128;9.278;2024-03-08T04:48:02;101047.44;;;2.37;100.00
38718;BME280;24468;52.128;9.278;2024-03-08T04:50:28;101051.94;;;1.86;100.00
38718;BME280;24468;52.128;9.278;2024-03-08T04:52:57;101048.34;;;1.06;100.00
38718;BME280;24468;52.128;9.278;2024-03-08T04:55:22;101056.34;;;1.10;100.00
38718;BME280;24468;52.128;9.278;2024-03-08T04:57:48;101048.41;;;1.53;100.00
38718;BME280;24468;52.128;9.278;2024-03-08T05:00:14;101046.66;;;1.78;100.00
38718;BME280;24468;52.128;9.278;2024-03-08T05:02:41;101044.84;;;1.97;100.00
38718;BME280;24468;52.128;9.278;2024-03-08T05:05:08;101042.19;;;2.11;100.00
38718;BME280;24468;52.128;9.278;2024-03-08T05:07:36;101034.19;;;2.14;100.00
38718;BME280;24468;52.128;9.278;2024-03-08T05:10:01;101039.50;;;2.16;100.00
38718;BME280;24468;52.128;9.278;2024-03-08T05:12:28;101034.19;;;2.20;100.00
38718;BME280;24468;52.128;9.278;2024-03-08T05:14:53;101032.44;;;2.01;100.00
38718;BME280;24468;52.128;9.278;2024-03-08T05:17:19;101028.91;;;1.90;100.00
38718;BME280;24468;52.128;9.278;2024-03-08T05:19:45;101028.91;;;1.71;100.00
38718;BME280;24468;52.128;9.278;2024-03-08T05:22:10;101021.81;;;1.90;100.00
38718;BME280;24468;52.128;9.278;2024-03-08T05:24:36;101030.69;;;1.85;100.00
38718;BME280;24468;52.128;9.278;2024-03-08T05:27:02;101033.34;;;1.85;100.00
38718;BME280;24468;52.128;9.278;2024-03-08T05:29:29;101029.78;;;2.01;100.00
38718;BME280;24468;52.128;9.278;2024-03-08T05:31:55;101025.38;;;1.57;100.00
38718;BME280;24468;52.128;9.278;2024-03-08T05:34:21;101020.88;;;2.05;100.00
38718;BME280;24468;52.128;9.278;2024-03-08T05:36:47;101017.28;;;2.25;100.00
38718;BME280;24468;52.128;9.278;2024-03-08T05:39:15;101018.22;;;2.13;100.00
38718;BME280;24468;52.128;9.278;2024-03-08T05:41:42;101020.03;;;2.03;100.00
38718;BME280;24468;52.128;9.278;2024-03-08T05:44:08;101017.31;;;2.14;100.00
38718;BME280;24468;52.128;9.278;2024-03-08T05:46:35;101020.03;;;1.95;100.00
38718;BME280;24468;52.128;9.278;2024-03-08T05:49:02;101016.50;;;1.76;100.00
38718;BME280;24468;52.128;9.278;2024-03-08T05:51:36;101005.81;;;2.01;100.00
38718;BME280;24468;52.128;9.278;2024-03-08T05:54:09;101017.34;;;2.02;100.00
38718;BME280;24468;52.128;9.278;2024-03-08T05:56:36;101022.69;;;2.06;100.00
38718;BME280;24468;52.128;9.278;2024-03-08T05:59:02;101018.19;;;2.27;100.00
38718;BME280;24468;52.128;9.278;2024-03-08T06:01:29;101009.31;;;2.25;100.00
38718;BME280;24468;52.128;9.278;2024-03-08T06:03:55;101017.28;;;2.26;100.00
38718;BME280;24468;52.128;9.278;2024-03-08T06:06:23;101018.19;;;2.22;100.00
38718;BME280;24468;52.128;9.278;2024-03-08T06:08:50;101015.53;;;2.16;100.00
38718;BME280;24468;52.128;9.278;2024-03-08T06:11:20;101030.59;;;2.21;100.00
38718;BME280;24468;52.128;9.278;2024-03-08T06:13:46;101019.09;;;2.22;100.00
38718;BME280;24468;52.128;9.278;2024-03-08T06:16:12;101020.84;;;2.23;100.00
38718;BME280;24468;52.128;9.278;2024-03-08T06:18:38;101028.84;;;2.08;100.00
38718;BME280;24468;52.128;9.278;2024-03-08T06:21:07;101021.78;;;2.12;100.00
38718;BME280;24468;52.128;9.278;2024-03-08T06:23:37;101020.88;;;2.17;100.00
38718;BME280;24468;52.128;9.278;2024-03-08T06:26:07;101020.00;;;2.09;100.00
38718;BME280;24468;52.128;9.278;2024-03-08T06:28:32;101021.75;;;2.22;100.00
38718;BME280;24468;52.128;9.278;2024-03-08T06:30:59;101027.03;;;2.35;100.00
38718;BME280;24468;52.128;9.278;2024-03-08T06:33:25;101017.16;;;2.69;100.00
38718;BME280;24468;52.128;9.278;2024-03-08T06:35:56;101017.94;;;2.89;100.00
38718;BME280;24468;52.128;9.278;2024-03-08T06:38:23;101019.66;;;3.00;100.00
38718;BME280;24468;52.128;9.278;2024-03-08T06:40:49;101014.19;;;3.20;100.00
38718;BME280;24468;52.128;9.278;2024-03-08T06:43:17;101018.84;;;2.79;100.00
38718;BME280;24468;52.128;9.278;2024-03-08T06:45:43;101013.66;;;2.58;100.00
38718;BME280;24468;52.128;9.278;2024-03-08T06:48:15;101021.44;;;2.99;100.00
38718;BME280;24468;52.128;9.278;2024-03-08T06:50:45;101015.06;;;3.20;100.00
38718;BME280;24468;52.128;9.278;2024-03-08T06:53:12;101024.81;;;3.26;100.00
38718;BME280;24468;52.128;9.278;2024-03-08T06:55:37;101024.94;;;3.10;100.00
38718;BME280;24468;52.128;9.278;2024-03-08T06:58:03;101021.25;;;3.27;100.00
38718;BME280;24468;52.128;9.278;2024-03-08T07:00:29;101022.19;;;3.21;100.00
38718;BME280;24468;52.128;9.278;2024-03-08T07:02:56;101021.16;;;3.41;100.00
38718;BME280;24468;52.128;9.278;2024-03-08T07:05:27;101020.22;;;3.45;100.00
38718;BME280;24468;52.128;9.278;2024-03-08T07:07:52;101021.00;;;3.61;100.00
38718;BME280;24468;52.128;9.278;2024-03-08T07:10:21;101010.38;;;3.54;100.00
38718;BME280;24468;52.128;9.278;2024-03-08T07:12:49;101008.53;;;3.63;100.00
38718;BME280;24468;52.128;9.278;2024-03-08T07:15:14;101016.53;;;3.61;100.00
38718;BME280;24468;52.128;9.278;2024-03-08T07:17:40;101017.31;;;3.75;100.00
38718;BME280;24468;52.128;9.278;2024-03-08T07:20:07;101018.13;;;3.85;100.00
38718;BME280;24468;52.128;9.278;2024-03-08T07:22:33;101018.00;;;3.97;100.00
38718;BME280;24468;52.128;9.278;2024-03-08T07:24:59;101007.44;;;3.84;100.00
38718;BME280;24468;52.128;9.278;2024-03-08T07:27:46;101010.78;;;4.06;100.00
38718;BME280;24468;52.128;9.278;2024-03-08T07:30:11;101014.47;;;3.94;100.00
38718;BME280;24468;52.128;9.278;2024-03-08T07:32:37;101002.81;;;4.03;100.00
38718;BME280;24468;52.128;9.278;2024-03-08T07:35:03;101003.72;;;4.01;100.00
38718;BME280;24468;52.128;9.278;2024-03-08T07:37:29;101010.94;;;3.92;100.00
38718;BME280;24468;52.128;9.278;2024-03-08T07:39:55;101009.06;;;4.00;100.00
38718;BME280;24468;52.128;9.278;2024-03-08T07:42:21;101007.91;;;4.27;100.00
38718;BME280;24468;52.128;9.278;2024-03-08T07:44:48;101007.94;;;4.24;100.00
38718;BME280;24468;52.128;9.278;2024-03-08T07:47:15;100999.00;;;4.28;100.00
38718;BME280;24468;52.128;9.278;2024-03-08T07:49:42;101010.69;;;4.18;100.00
38718;BME280;24468;52.128;9.278;2024-03-08T07:52:09;101003.16;;;4.52;100.00
38718;BME280;24468;52.128;9.278;2024-03-08T07:54:35;100995.03;;;4.61;100.00
38718;BME280;24468;52.128;9.278;2024-03-08T07:57:00;100994.91;;;4.72;100.00
38718;BME280;24468;52.128;9.278;2024-03-08T07:59:28;100992.44;;;4.55;100.00
38718;BME280;24468;52.128;9.278;2024-03-08T08:01:55;100991.63;;;4.49;100.00
38718;BME280;24468;52.128;9.278;2024-03-08T08:04:20;100995.41;;;4.31;100.00
38718;BME280;24468;52.128;9.278;2024-03-08T08:06:50;100987.66;;;4.79;100.00
38718;BME280;24468;52.128;9.278;2024-03-08T08:09:16;100985.81;;;4.85;100.00
38718;BME280;24468;52.128;9.278;2024-03-08T08:11:54;100994.28;;;5.15;100.00
38718;BME280;24468;52.128;9.278;2024-03-08T08:14:20;100991.53;;;5.21;100.00
38718;BME280;24468;52.128;9.278;2024-03-08T08:16:47;100984.00;;;5.45;100.00
38718;BME280;24468;52.128;9.278;2024-03-08T08:19:14;100989.31;;;5.49;100.00
38718;BME280;24468;52.128;9.278;2024-03-08T08:21:41;100986.00;;;5.32;100.00
38718;BME280;24468;52.128;9.278;2024-03-08T08:24:07;100985.56;;;5.60;100.00
38718;BME280;24468;52.128;9.278;2024-03-08T08:26:32;100977.00;;;5.89;100.00
38718;BME280;24468;52.128;9.278;2024-03-08T08:28:59;100975.97;;;5.99;100.00
38718;BME280;24468;52.128;9.278;2024-03-08T08:31:25;100973.03;;;6.11;100.00
38718;BME280;24468;52.128;9.278;2024-03-08T08:33:51;100969.56;;;6.08;100.00
38718;BME280;24468;52.128;9.278;2024-03-08T08:36:23;100972.97;;;6.16;100.00
38718;BME280;24468;52.128;9.278;2024-03-08T08:38:49;100970.84;;;5.84;100.00
38718;BME280;24468;52.128;9.278;2024-03-08T08:41:15;100976.00;;;5.45;100.00
38718;BME280;24468;52.128;9.278;2024-03-08T08:43:42;100972.84;;;5.18;100.00
38718;BME280;24468;52.128;9.278;2024-03-08T08:46:10;100971.59;;;5.92;100.00
38718;BME280;24468;52.128;9.278;2024-03-08T08:48:39;100970.22;;;5.69;100.00
38718;BME280;24468;52.128;9.278;2024-03-08T08:51:09;100970.50;;;5.54;100.00
38718;BME280;24468;52.128;9.278;2024-03-08T08:53:38;100965.53;;;5.82;100.00
38718;BME280;24468;52.128;9.278;2024-03-08T08:56:06;100957.53;;;5.80;100.00
38718;BME280;24468;52.128;9.278;2024-03-08T08:58:33;100954.34;;;5.60;100.00
38718;BME280;24468;52.128;9.278;2024-03-08T09:00:59;100954.28;;;5.63;100.00
38718;BME280;24468;52.128;9.278;2024-03-08T09:03:25;100955.44;;;5.47;100.00
38718;BME280;24468;52.128;9.278;2024-03-08T09:05:52;100951.78;;;5.54;100.00
38718;BME280;24468;52.128;9.278;2024-03-08T09:08:18;100942.84;;;6.03;100.00
38718;BME280;24468;52.128;9.278;2024-03-08T09:10:43;100938.13;;;6.17;100.00
38718;BME280;24468;52.128;9.278;2024-03-08T09:13:09;100928.94;;;6.71;100.00
38718;BME280;24468;52.128;9.278;2024-03-08T09:15:36;100935.84;;;6.83;100.00
38718;BME280;24468;52.128;9.278;2024-03-08T09:18:06;100925.66;;;6.58;100.00
38718;BME280;24468;52.128;9.278;2024-03-08T09:20:32;100925.09;;;5.99;100.00
38718;BME280;24468;52.128;9.278;2024-03-08T09:22:57;100927.81;;;5.96;100.00
38718;BME280;24468;52.128;9.278;2024-03-08T09:25:23;100930.41;;;6.00;100.00
38718;BME280;24468;52.128;9.278;2024-03-08T09:27:49;100921.34;;;6.50;100.00
38718;BME280;24468;52.128;9.278;2024-03-08T09:30:15;100922.38;;;6.44;100.00
38718;BME280;24468;52.128;9.278;2024-03-08T09:32:41;100907.72;;;6.60;100.00
38718;BME280;24468;52.128;9.278;2024-03-08T09:35:09;100907.06;;;6.49;100.00
38718;BME280;24468;52.128;9.278;2024-03-08T09:37:35;100896.28;;;6.52;100.00
38718;BME280;24468;52.128;9.278;2024-03-08T09:40:01;100903.03;;;6.70;100.00
38718;BME280;24468;52.128;9.278;2024-03-08T09:42:30;100895.25;;;6.59;100.00
38718;BME280;24468;52.128;9.278;2024-03-08T09:44:57;100885.78;;;6.82;100.00
38718;BME280;24468;52.128;9.278;2024-03-08T09:47:24;100886.31;;;6.18;100.00
38718;BME280;24468;52.128;9.278;2024-03-08T09:49:52;100868.53;;;6.14;100.00
38718;BME280;24468;52.128;9.278;2024-03-08T09:52:18;100877.72;;;6.44;100.00
38718;BME280;24468;52.128;9.278;2024-03-08T09:54:44;100865.03;;;7.26;100.00
38718;BME280;24468;52.128;9.278;2024-03-08T09:57:10;100856.09;;;7.27;97.51
38718;BME280;24468;52.128;9.278;2024-03-08T09:59:36;100853.31;;;6.57;98.78
38718;BME280;24468;52.128;9.278;2024-03-08T10:02:01;100849.44;;;6.68;100.00
38718;BME280;24468;52.128;9.278;2024-03-08T10:04:29;100838.00;;;7.33;98.55
38718;BME280;24468;52.128;9.278;2024-03-08T10:07:00;100841.03;;;7.20;98.81
38718;BME280;24468;52.128;9.278;2024-03-08T10:09:26;100830.16;;;7.26;98.96
38718;BME280;24468;52.128;9.278;2024-03-08T10:11:56;100827.06;;;7.74;97.56
38718;BME280;24468;52.128;9.278;2024-03-08T10:14:24;100818.81;;;7.49;96.71
38718;BME280;24468;52.128;9.278;2024-03-08T10:16:52;100821.81;;;8.00;95.88
38718;BME280;24468;52.128;9.278;2024-03-08T10:19:17;100815.25;;;8.11;93.29
38718;BME280;24468;52.128;9.278;2024-03-08T10:21:50;100812.78;;;8.33;91.42
38718;BME280;24468;52.128;9.278;2024-03-08T10:24:18;100811.59;;;8.13;92.79
38718;BME280;24468;52.128;9.278;2024-03-08T10:26:44;100801.88;;;8.09;95.27
38718;BME280;24468;52.128;9.278;2024-03-08T10:29:09;100790.53;;;8.57;91.42
38718;BME280;24468;52.128;9.278;2024-03-08T10:31:35;100801.22;;;7.70;92.08
38718;BME280;24468;52.128;9.278;2024-03-08T10:34:01;100798.50;;;7.39;91.99
38718;BME280;24468;52.128;9.278;2024-03-08T10:36:28;100793.50;;;7.57;93.48
38718;BME280;24468;52.128;9.278;2024-03-08T10:38:54;100779.16;;;7.26;93.54
38718;BME280;24468;52.128;9.278;2024-03-08T10:41:24;100783.44;;;7.33;97.09
38718;BME280;24468;52.128;9.278;2024-03-08T10:46:36;100772.22;;;8.12;93.32
38718;BME280;24468;52.128;9.278;2024-03-08T10:49:10;100778.38;;;8.16;91.03
38718;BME280;24468;52.128;9.278;2024-03-08T10:51:38;100782.25;;;8.06;90.88
38718;BME280;24468;52.128;9.278;2024-03-08T10:54:07;100779.38;;;8.41;92.00
38718;BME280;24468;52.128;9.278;2024-03-08T10:56:34;100776.97;;;8.32;89.41
38718;BME280;24468;52.128;9.278;2024-03-08T10:59:00;100769.56;;;8.40;88.46
38718;BME280;24468;52.128;9.278;2024-03-08T11:01:26;100766.75;;;8.45;88.35
38718;BME280;24468;52.128;9.278;2024-03-08T11:03:52;100761.53;;;8.67;87.36
38718;BME280;24468;52.128;9.278;2024-03-08T11:09:02;100755.66;;;8.56;87.60
38718;BME280;24468;52.128;9.278;2024-03-08T11:11:31;100749.78;;;8.43;85.60
38718;BME280;24468;52.128;9.278;2024-03-08T11:13:58;100744.16;;;8.21;89.00
38718;BME280;24468;52.128;9.278;2024-03-08T11:21:57;100718.53;;;8.39;88.20
38718;BME280;24468;52.128;9.278;2024-03-08T11:24:23;100715.81;;;8.40;85.99
38718;BME280;24468;52.128;9.278;2024-03-08T11:26:49;100717.69;;;8.65;85.12
38718;BME280;24468;52.128;9.278;2024-03-08T11:32:19;100702.47;;;9.41;82.79
38718;BME280;24468;52.128;9.278;2024-03-08T11:34:49;100698.06;;;9.13;81.61
38718;BME280;24468;52.128;9.278;2024-03-08T11:37:17;100697.75;;;8.71;82.56
38718;BME280;24468;52.128;9.278;2024-03-08T11:39:50;100691.78;;;8.87;85.03
38718;BME280;24468;52.128;9.278;2024-03-08T11:42:18;100689.31;;;9.78;81.22
38718;BME280;24468;52.128;9.278;2024-03-08T11:44:45;100681.13;;;9.82;80.34
38718;BME280;24468;52.128;9.278;2024-03-08T11:47:11;100682.59;;;9.43;79.49
38718;BME280;24468;52.128;9.278;2024-03-08T11:49:40;100673.78;;;10.31;78.30
38718;BME280;24468;52.128;9.278;2024-03-08T11:52:15;100665.31;;;10.18;76.24
38718;BME280;24468;52.128;9.278;2024-03-08T11:54:42;100659.28;;;10.55;75.03
38718;BME280;24468;52.128;9.278;2024-03-08T11:57:09;100661.97;;;10.11;73.92
38718;BME280;24468;52.128;9.278;2024-03-08T11:59:35;100651.78;;;10.41;73.79
38718;BME280;24468;52.128;9.278;2024-03-08T12:02:06;100653.88;;;10.55;72.98
38718;BME280;24468;52.128;9.278;2024-03-08T12:04:32;100650.19;;;10.14;72.50
38718;BME280;24468;52.128;9.278;2024-03-08T12:07:02;100654.78;;;9.66;74.38
38718;BME280;24468;52.128;9.278;2024-03-08T12:09:31;100651.16;;;9.20;75.70
38718;BME280;24468;52.128;9.278;2024-03-08T12:11:58;100642.47;;;9.59;74.64
38718;BME280;24468;52.128;9.278;2024-03-08T12:14:24;100634.41;;;10.49;74.26
38718;BME280;24468;52.128;9.278;2024-03-08T12:16:51;100635.59;;;10.19;73.88
38718;BME280;24468;52.128;9.278;2024-03-08T12:19:16;100623.19;;;10.15;73.71
38718;BME280;24468;52.128;9.278;2024-03-08T12:21:42;100619.72;;;10.34;72.87
38718;BME280;24468;52.128;9.278;2024-03-08T12:24:16;100614.84;;;10.43;72.60
38718;BME280;24468;52.128;9.278;2024-03-08T12:26:45;100612.69;;;10.31;71.91
38718;BME280;24468;52.128;9.278;2024-03-08T12:29:27;100600.22;;;10.49;72.80
38718;BME280;24468;52.128;9.278;2024-03-08T12:31:58;100592.78;;;10.75;69.99
38718;BME280;24468;52.128;9.278;2024-03-08T12:34:26;100591.44;;;10.44;70.78
38718;BME280;24468;52.128;9.278;2024-03-08T12:36:53;100595.53;;;9.88;70.32
38718;BME280;24468;52.128;9.278;2024-03-08T12:39:21;100589.88;;;10.38;71.08
38718;BME280;24468;52.128;9.278;2024-03-08T12:41:56;100588.88;;;10.19;71.68
38718;BME280;24468;52.128;9.278;2024-03-08T12:44:25;100575.66;;;10.35;70.79
38718;BME280;24468;52.128;9.278;2024-03-08T12:46:51;100572.50;;;10.45;72.87
38718;BME280;24468;52.128;9.278;2024-03-08T12:49:19;100570.69;;;10.46;72.39
38718;BME280;24468;52.128;9.278;2024-03-08T12:51:48;100561.44;;;9.87;72.59
38718;BME280;24468;52.128;9.278;2024-03-08T12:54:14;100553.00;;;10.59;74.58
38718;BME280;24468;52.128;9.278;2024-03-08T12:56:39;100554.31;;;10.90;72.20
38718;BME280;24468;52.128;9.278;2024-03-08T12:59:08;100549.56;;;10.56;72.19
38718;BME280;24468;52.128;9.278;2024-03-08T13:01:35;100554.50;;;10.46;73.33
38718;BME280;24468;52.128;9.278;2024-03-08T13:04:03;100549.03;;;10.48;73.30